• Join FlightAware (Why Join?)
  • Login
  • US Flag 
04:04PM EDT


 

Airport Tracker/Info


-or-


 

Live Flight TrackerFlight Track Log ✈ N742CD ✈ 05-May-2012 ✈ KBWD - KTDW

Flight Track Log - Related Links

Times and Time Zones

All times are in EDT time to prevent confusion due to time zone crossing. See the N742CD flight status page for this flight to view local times or setup timezone preferences in your user account.

Time Position Orientation Groundspeed Altitude Reporting Facility
EDT Latitude Longitude Course Direction KTS MPH feet Rate Location/Type
05:39PM 31.8644 -99.0475 327° Northwest 183 211 4,500  Level Fort Worth Center
05:40PM 31.8975 -99.0725 325° Northwest 167 192 5,300 780 Climbing Fort Worth Center
05:41PM 31.9306 -99.1000 324° Northwest 153 176 6,100 600 Climbing Fort Worth Center
05:42PM 31.9656 -99.1300 328° Northwest 148 170 6,600 600 Climbing Fort Worth Center
05:43PM 32.0028 -99.1575 326° Northwest 148 170 7,300 600 Climbing Fort Worth Center
05:44PM 32.0381 -99.1853 325° Northwest 148 170 7,900 300 Climbing Fort Worth Center
05:45PM 32.0772 -99.2178 325° Northwest 154 177 8,000  Climbing Fort Worth Center
05:46PM 32.1164 -99.2506 328° Northwest 159 183 8,000 300 Level Fort Worth Center
05:47PM 32.1536 -99.2783 325° Northwest 164 189 8,700 600 Climbing Fort Worth Center
05:48PM 32.1906 -99.3086 324° Northwest 164 189 9,300 600 Climbing Fort Worth Center
05:49PM 32.2256 -99.3386 325° Northwest 159 183 9,900 300 Climbing Fort Worth Center
05:50PM 32.2628 -99.3689 326° Northwest 159 183 10,000  Climbing Fort Worth Center
05:51PM 32.3039 -99.4019 327° Northwest 164 189 10,000  Level Fort Worth Center
05:52PM 32.3431 -99.4322 325° Northwest 169 194 10,000  Level Fort Worth Center
05:53PM 32.3822 -99.4650 325° Northwest 169 194 10,000  Level Fort Worth Center
05:54PM 32.4194 -99.4956 326° Northwest 169 194 10,000  Level Fort Worth Center
06:00PM 32.6561 -99.6883 326° Northwest 172 198 10,000  Level Fort Worth Center
06:04PM 32.8164 -99.8186 323° Northwest 172 198 10,000  Level Fort Worth Center
06:05PM 32.8533 -99.8517 326° Northwest 172 198 10,000  Level Fort Worth Center
06:06PM 32.8944 -99.8850 324° Northwest 177 204 10,000  Level Fort Worth Center
06:07PM 32.9336 -99.9183 326° Northwest 177 204 10,100  Climbing Fort Worth Center
06:08PM 32.9747 -99.9517 326° Northwest 177 204 10,100 -60 Level Fort Worth Center
06:09PM 33.0136 -99.9825 324° Northwest 177 204 10,000  Descending Fort Worth Center
06:10PM 33.0525 -100.0158 325° Northwest 177 204 10,100  Climbing Fort Worth Center
06:11PM 33.0894 -100.0467 326° Northwest 177 204 10,000 -60 Descending Fort Worth Center
06:12PM 33.1244 -100.0750 323° Northwest 171 197 10,000  Level Fort Worth Center
06:13PM 33.1614 -100.1083 328° Northwest 166 191 10,000  Level Fort Worth Center
06:14PM 33.2025 -100.1394 324° Northwest 166 191 10,000  Level Fort Worth Center
06:15PM 33.2433 -100.1753 326° Northwest 178 205 10,000  Level Fort Worth Center
06:16PM 33.2822 -100.2064 322° Northwest 178 205 10,000  Level Fort Worth Center
06:17PM 33.3211 -100.2425 328° Northwest 173 199 10,000  Level Fort Worth Center
06:18PM 33.3622 -100.2736 326° Northwest 173 199 10,000  Level Fort Worth Center
06:19PM 33.4011 -100.3047 321° Northwest 173 199 10,000  Level Fort Worth Center
06:20PM 33.4358 -100.3383 329° Northwest 168 193 10,000  Level Fort Worth Center
06:21PM 33.4728 -100.3644 325° Northwest 168 193 10,000  Level Fort Worth Center
06:22PM 33.5097 -100.3956 323° Northwest 168 193 10,000  Level Fort Worth Center
06:23PM 33.5444 -100.4267 323° Northwest 168 193 10,000  Level Fort Worth Center
06:24PM 33.5792 -100.4578 324° Northwest 168 193 10,000  Level Fort Worth Center
06:25PM 33.6178 -100.4914 328° Northwest 162 186 10,000  Level Fort Worth Center
06:26PM 33.6569 -100.5203 327° Northwest 162 186 10,000  Level Fort Worth Center
06:27PM 33.6936 -100.5489 322° Northwest 168 193 10,000  Level Fort Worth Center
06:28PM 33.7303 -100.5828 329° Northwest 168 193 10,000  Level Fort Worth Center
06:29PM 33.7733 -100.6144 320° Northwest 173 199 10,000  Level Fort Worth Center
06:30PM 33.8100 -100.6508 325° Northwest 173 199 10,000  Level Fort Worth Center
06:31PM 33.8467 -100.6819 327° Northwest 173 199 10,000  Level Fort Worth Center
06:32PM 33.8836 -100.7111 327° Northwest 167 192 10,000  Level Fort Worth Center
06:33PM 33.9244 -100.7425 322° Northwest 172 198 10,000  Level Fort Worth Center
06:34PM 33.9631 -100.7792 319° Northwest 172 198 10,000  Level Fort Worth Center
06:35PM 33.9997 -100.8181 330° Northwest 177 204 10,000  Level Fort Worth Center
06:36PM 34.0386 -100.8447 326° Northwest 171 197 10,100  Climbing Fort Worth Center
06:37PM 34.0775 -100.8764 326° Northwest 171 197 10,100  Level Fort Worth Center
06:38PM 34.1161 -100.9081 323° Northwest 165 190 10,100  Level Fort Worth Center
06:39PM 34.1508 -100.9394 322° Northwest 165 190 10,100  Level Fort Worth Center
06:40PM 34.1872 -100.9736 327° Northwest 165 190 10,100  Level Fort Worth Center
06:41PM 34.2281 -101.0056 321° Northwest 171 197 10,100 -60 Level Fort Worth Center
06:42PM 34.2686 -101.0447 327° Northwest 171 197 10,000 -60 Descending Fort Worth Center
06:43PM 34.3056 -101.0739 324° Northwest 171 197 10,000  Level Fort Worth Center
06:44PM 34.3358 -101.1006 325° Northwest 166 191 10,100  Climbing Fort Worth Center
06:45PM 34.3725 -101.1322 328° Northwest 166 191 10,100  Level Fort Worth Center
06:46PM 34.4114 -101.1617 324° Northwest 161 185 10,100  Level Fort Worth Center
06:48PM 34.4758 -101.2175 325° Northwest 163 188 10,100  Level Albuquerque Center
06:49PM 34.5142 -101.2506 322° Northwest 165 190 10,100  Level Albuquerque Center
06:50PM 34.5506 -101.2847 326° Northwest 166 191 10,100  Level Albuquerque Center
06:51PM 34.5886 -101.3156 325° Northwest 165 190 10,100  Level Albuquerque Center
06:52PM 34.6258 -101.3475 320° Northwest 165 190 10,100  Level Albuquerque Center
06:53PM 34.6611 -101.3833 310° West 164 189 10,100 -60 Level Albuquerque Center
06:54PM 34.6964 -101.4344 314° West 162 186 10,000  Descending Albuquerque Center
06:55PM 34.7261 -101.4719 313° West 158 182 10,100  Climbing Albuquerque Center
06:56PM 34.7558 -101.5103 313° West 155 178 10,000 -300 Descending Albuquerque Center
06:57PM 34.7869 -101.5506 313° West 158 182 9,500 -540 Descending Albuquerque Center
06:58PM 34.8194 -101.5925 313° West 164 189 9,000 -540 Descending Albuquerque Center
06:59PM 34.8522 -101.6356 313° West 168 193 8,400 -540 Descending Albuquerque Center
07:00PM 34.8847 -101.6786 313° West 171 197 7,900 -540 Descending Albuquerque Center
07:01PM 34.9175 -101.7217 313° West 172 198 7,400 -480 Descending Albuquerque Center
07:02PM 34.9461 -101.7594 314° West 163 188 7,000 -540 Descending Albuquerque Center
07:03PM 34.9831 -101.8061 337° Northwest 159 183 6,400 -420 Descending Albuquerque Center
07:04PM 35.0192 -101.8247 358° North 156 180 6,200 -480 Descending Albuquerque Center
07:05PM 35.0603 -101.8267 358° North 150 173 5,500 -720 Descending Albuquerque Center